sensor_id;sensor_type;location;lat;lon;timestamp;temperature;humidity
66740;DHT22;53653;52.188;8.602;2024-02-23T00:00:48;8.76;69.61
66740;DHT22;53653;52.188;8.602;2024-02-23T00:03:14;8.82;69.18
66740;DHT22;53653;52.188;8.602;2024-02-23T00:05:39;8.81;69.67
66740;DHT22;53653;52.188;8.602;2024-02-23T00:08:06;8.81;70.01
66740;DHT22;53653;52.188;8.602;2024-02-23T00:10:32;8.78;70.07
66740;DHT22;53653;52.188;8.602;2024-02-23T00:12:57;8.76;70.38
66740;DHT22;53653;52.188;8.602;2024-02-23T00:15:23;8.72;70.19
66740;DHT22;53653;52.188;8.602;2024-02-23T00:17:50;8.65;70.85
66740;DHT22;53653;52.188;8.602;2024-02-23T00:20:15;8.60;71.15
66740;DHT22;53653;52.188;8.602;2024-02-23T00:22:41;8.58;71.57
66740;DHT22;53653;52.188;8.602;2024-02-23T00:25:06;8.55;71.81
66740;DHT22;53653;52.188;8.602;2024-02-23T00:27:32;8.53;72.55
66740;DHT22;53653;52.188;8.602;2024-02-23T00:29:58;8.32;76.64
66740;DHT22;53653;52.188;8.602;2024-02-23T00:32:23;7.65;80.27
66740;DHT22;53653;52.188;8.602;2024-02-23T00:34:49;7.31;81.94
66740;DHT22;53653;52.188;8.602;2024-02-23T00:37:14;7.04;82.78
66740;DHT22;53653;52.188;8.602;2024-02-23T00:39:40;6.90;81.67
66740;DHT22;53653;52.188;8.602;2024-02-23T00:42:06;6.93;81.55
66740;DHT22;53653;52.188;8.602;2024-02-23T00:44:31;6.90;81.60
66740;DHT22;53653;52.188;8.602;2024-02-23T00:46:57;6.86;81.99
66740;DHT22;53653;52.188;8.602;2024-02-23T00:49:26;6.87;82.98
66740;DHT22;53653;52.188;8.602;2024-02-23T00:51:52;6.75;83.50
66740;DHT22;53653;52.188;8.602;2024-02-23T00:54:17;6.62;84.36
66740;DHT22;53653;52.188;8.602;2024-02-23T00:56:43;6.52;85.18
66740;DHT22;53653;52.188;8.602;2024-02-23T00:59:10;6.30;85.54
66740;DHT22;53653;52.188;8.602;2024-02-23T01:01:35;6.06;87.01
66740;DHT22;53653;52.188;8.602;2024-02-23T01:04:01;5.93;88.06
66740;DHT22;53653;52.188;8.602;2024-02-23T01:06:26;5.65;88.22
66740;DHT22;53653;52.188;8.602;2024-02-23T01:08:53;5.59;89.08
66740;DHT22;53653;52.188;8.602;2024-02-23T01:11:19;5.51;89.05
66740;DHT22;53653;52.188;8.602;2024-02-23T01:13:44;5.49;89.62
66740;DHT22;53653;52.188;8.602;2024-02-23T01:16:09;5.43;89.41
66740;DHT22;53653;52.188;8.602;2024-02-23T01:18:35;5.45;89.51
66740;DHT22;53653;52.188;8.602;2024-02-23T01:21:00;5.46;89.56
66740;DHT22;53653;52.188;8.602;2024-02-23T01:23:26;5.42;88.87
66740;DHT22;53653;52.188;8.602;2024-02-23T01:25:51;5.35;88.30
66740;DHT22;53653;52.188;8.602;2024-02-23T01:28:17;5.36;88.54
66740;DHT22;53653;52.188;8.602;2024-02-23T01:30:42;5.38;88.52
66740;DHT22;53653;52.188;8.602;2024-02-23T01:33:08;5.34;88.25
66740;DHT22;53653;52.188;8.602;2024-02-23T01:35:33;5.32;88.25
66740;DHT22;53653;52.188;8.602;2024-02-23T01:37:59;5.32;88.49
66740;DHT22;53653;52.188;8.602;2024-02-23T01:40:24;5.28;88.88
66740;DHT22;53653;52.188;8.602;2024-02-23T01:43:00;5.28;89.09
66740;DHT22;53653;52.188;8.602;2024-02-23T01:45:26;5.31;89.55
66740;DHT22;53653;52.188;8.602;2024-02-23T01:47:52;5.27;88.87
66740;DHT22;53653;52.188;8.602;2024-02-23T01:50:17;5.22;88.64
66740;DHT22;53653;52.188;8.602;2024-02-23T01:52:43;5.24;88.30
66740;DHT22;53653;52.188;8.602;2024-02-23T01:55:08;5.24;88.06
66740;DHT22;53653;52.188;8.602;2024-02-23T01:57:34;5.25;88.25
66740;DHT22;53653;52.188;8.602;2024-02-23T01:59:59;5.28;87.88
66740;DHT22;53653;52.188;8.602;2024-02-23T02:02:28;5.32;87.62
66740;DHT22;53653;52.188;8.602;2024-02-23T02:04:53;5.27;86.84
66740;DHT22;53653;52.188;8.602;2024-02-23T02:07:19;5.32;86.65
66740;DHT22;53653;52.188;8.602;2024-02-23T02:09:47;5.30;86.29
66740;DHT22;53653;52.188;8.602;2024-02-23T02:12:12;5.35;86.39
66740;DHT22;53653;52.188;8.602;2024-02-23T02:14:38;5.36;86.00
66740;DHT22;53653;52.188;8.602;2024-02-23T02:17:03;5.36;85.80
66740;DHT22;53653;52.188;8.602;2024-02-23T02:19:29;5.34;85.70
66740;DHT22;53653;52.188;8.602;2024-02-23T02:21:55;5.30;86.21
66740;DHT22;53653;52.188;8.602;2024-02-23T02:24:21;5.36;85.55
66740;DHT22;53653;52.188;8.602;2024-02-23T02:26:46;5.36;85.69
66740;DHT22;53653;52.188;8.602;2024-02-23T02:29:13;5.36;85.84
66740;DHT22;53653;52.188;8.602;2024-02-23T02:31:39;5.39;86.08
66740;DHT22;53653;52.188;8.602;2024-02-23T02:34:04;5.39;86.12
66740;DHT22;53653;52.188;8.602;2024-02-23T02:36:30;5.41;85.64
66740;DHT22;53653;52.188;8.602;2024-02-23T02:38:55;5.43;85.51
66740;DHT22;53653;52.188;8.602;2024-02-23T02:41:22;5.43;85.69
66740;DHT22;53653;52.188;8.602;2024-02-23T02:43:49;5.34;85.16
66740;DHT22;53653;52.188;8.602;2024-02-23T02:46:14;5.39;85.26
66740;DHT22;53653;52.188;8.602;2024-02-23T02:48:40;5.42;85.31
66740;DHT22;53653;52.188;8.602;2024-02-23T02:51:05;5.49;85.53
66740;DHT22;53653;52.188;8.602;2024-02-23T02:53:30;5.53;84.89
66740;DHT22;53653;52.188;8.602;2024-02-23T02:55:56;5.53;84.41
66740;DHT22;53653;52.188;8.602;2024-02-23T02:58:21;5.53;84.36
66740;DHT22;53653;52.188;8.602;2024-02-23T03:00:46;5.55;83.65
66740;DHT22;53653;52.188;8.602;2024-02-23T03:03:12;5.53;83.74
66740;DHT22;53653;52.188;8.602;2024-02-23T03:05:38;5.55;83.54
66740;DHT22;53653;52.188;8.602;2024-02-23T03:08:03;5.51;83.49
66740;DHT22;53653;52.188;8.602;2024-02-23T03:10:29;5.56;83.53
66740;DHT22;53653;52.188;8.602;2024-02-23T03:12:54;5.62;83.24
66740;DHT22;53653;52.188;8.602;2024-02-23T03:15:20;5.53;83.46
66740;DHT22;53653;52.188;8.602;2024-02-23T03:17:45;5.60;83.01
66740;DHT22;53653;52.188;8.602;2024-02-23T03:20:11;5.62;82.62
66740;DHT22;53653;52.188;8.602;2024-02-23T03:22:37;5.62;82.97
66740;DHT22;53653;52.188;8.602;2024-02-23T03:25:03;5.67;82.66
66740;DHT22;53653;52.188;8.602;2024-02-23T03:27:36;5.66;82.84
66740;DHT22;53653;52.188;8.602;2024-02-23T03:30:05;5.70;82.55
66740;DHT22;53653;52.188;8.602;2024-02-23T03:32:33;5.76;81.94
66740;DHT22;53653;52.188;8.602;2024-02-23T03:35:02;5.83;81.88
66740;DHT22;53653;52.188;8.602;2024-02-23T03:37:28;5.79;81.60
66740;DHT22;53653;52.188;8.602;2024-02-23T03:39:54;5.86;81.61
66740;DHT22;53653;52.188;8.602;2024-02-23T03:42:19;5.85;81.67
66740;DHT22;53653;52.188;8.602;2024-02-23T03:44:44;5.79;81.95
66740;DHT22;53653;52.188;8.602;2024-02-23T03:47:10;5.85;81.60
66740;DHT22;53653;52.188;8.602;2024-02-23T03:49:35;5.85;81.80
66740;DHT22;53653;52.188;8.602;2024-02-23T03:52:01;5.85;81.55
66740;DHT22;53653;52.188;8.602;2024-02-23T03:54:26;5.93;80.98
66740;DHT22;53653;52.188;8.602;2024-02-23T03:56:52;5.90;80.50
66740;DHT22;53653;52.188;8.602;2024-02-23T03:59:17;5.96;80.77
66740;DHT22;53653;52.188;8.602;2024-02-23T04:01:43;5.96;80.32
66740;DHT22;53653;52.188;8.602;2024-02-23T04:04:09;5.99;79.89
66740;DHT22;53653;52.188;8.602;2024-02-23T04:06:35;5.99;79.37
66740;DHT22;53653;52.188;8.602;2024-02-23T04:09:00;6.00;79.46
66740;DHT22;53653;52.188;8.602;2024-02-23T04:11:26;6.01;79.00
66740;DHT22;53653;52.188;8.602;2024-02-23T04:13:51;6.00;78.86
66740;DHT22;53653;52.188;8.602;2024-02-23T04:16:17;5.97;78.92
66740;DHT22;53653;52.188;8.602;2024-02-23T04:18:42;5.93;78.33
66740;DHT22;53653;52.188;8.602;2024-02-23T04:21:07;5.89;78.57
66740;DHT22;53653;52.188;8.602;2024-02-23T04:23:33;5.86;78.44
66740;DHT22;53653;52.188;8.602;2024-02-23T04:25:58;5.86;78.18
66740;DHT22;53653;52.188;8.602;2024-02-23T04:28:24;5.80;77.96
66740;DHT22;53653;52.188;8.602;2024-02-23T04:30:52;5.85;77.54
66740;DHT22;53653;52.188;8.602;2024-02-23T04:33:17;5.86;77.67
66740;DHT22;53653;52.188;8.602;2024-02-23T04:35:42;5.86;77.44
66740;DHT22;53653;52.188;8.602;2024-02-23T04:38:08;5.81;77.81
66740;DHT22;53653;52.188;8.602;2024-02-23T04:40:33;5.77;77.86
66740;DHT22;53653;52.188;8.602;2024-02-23T04:42:58;5.87;77.17
66740;DHT22;53653;52.188;8.602;2024-02-23T04:45:24;5.87;77.21
66740;DHT22;53653;52.188;8.602;2024-02-23T04:47:49;5.77;77.34
66740;DHT22;53653;52.188;8.602;2024-02-23T04:50:15;5.81;77.49
66740;DHT22;53653;52.188;8.602;2024-02-23T04:52:40;5.80;77.51
66740;DHT22;53653;52.188;8.602;2024-02-23T04:55:06;5.74;77.46
66740;DHT22;53653;52.188;8.602;2024-02-23T04:57:32;5.70;77.67
66740;DHT22;53653;52.188;8.602;2024-02-23T04:59:57;5.72;77.67
66740;DHT22;53653;52.188;8.602;2024-02-23T05:02:23;5.66;77.86
66740;DHT22;53653;52.188;8.602;2024-02-23T05:04:48;5.65;77.64
66740;DHT22;53653;52.188;8.602;2024-02-23T05:07:13;5.70;77.87
66740;DHT22;53653;52.188;8.602;2024-02-23T05:09:39;5.69;78.11
66740;DHT22;53653;52.188;8.602;2024-02-23T05:12:07;5.70;77.81
66740;DHT22;53653;52.188;8.602;2024-02-23T05:14:32;5.70;77.96
66740;DHT22;53653;52.188;8.602;2024-02-23T05:16:58;5.72;78.12
66740;DHT22;53653;52.188;8.602;2024-02-23T05:19:23;5.69;78.33
66740;DHT22;53653;52.188;8.602;2024-02-23T05:21:49;5.74;78.26
66740;DHT22;53653;52.188;8.602;2024-02-23T05:24:14;5.73;78.52
66740;DHT22;53653;52.188;8.602;2024-02-23T05:26:40;5.74;78.32
66740;DHT22;53653;52.188;8.602;2024-02-23T05:29:06;5.77;78.22
66740;DHT22;53653;52.188;8.602;2024-02-23T05:31:46;5.74;78.46
66740;DHT22;53653;52.188;8.602;2024-02-23T05:34:12;5.74;77.94
66740;DHT22;53653;52.188;8.602;2024-02-23T05:36:38;5.74;78.38
66740;DHT22;53653;52.188;8.602;2024-02-23T05:39:03;5.69;78.40
66740;DHT22;53653;52.188;8.602;2024-02-23T05:41:29;5.72;78.48
66740;DHT22;53653;52.188;8.602;2024-02-23T05:43:54;5.73;77.97
66740;DHT22;53653;52.188;8.602;2024-02-23T05:46:20;5.73;78.38
66740;DHT22;53653;52.188;8.602;2024-02-23T05:48:46;5.73;78.38
66740;DHT22;53653;52.188;8.602;2024-02-23T05:51:11;5.69;78.47
66740;DHT22;53653;52.188;8.602;2024-02-23T05:53:37;5.70;78.55
66740;DHT22;53653;52.188;8.602;2024-02-23T05:56:02;5.70;78.73
66740;DHT22;53653;52.188;8.602;2024-02-23T05:58:28;5.72;78.63
66740;DHT22;53653;52.188;8.602;2024-02-23T06:00:54;5.76;78.51
66740;DHT22;53653;52.188;8.602;2024-02-23T06:03:19;5.81;78.08
66740;DHT22;53653;52.188;8.602;2024-02-23T06:05:45;5.80;77.97
66740;DHT22;53653;52.188;8.602;2024-02-23T06:08:11;5.83;77.81
66740;DHT22;53653;52.188;8.602;2024-02-23T06:10:36;5.86;77.72
66740;DHT22;53653;52.188;8.602;2024-02-23T06:13:03;5.86;77.43
66740;DHT22;53653;52.188;8.602;2024-02-23T06:15:28;5.87;77.64
66740;DHT22;53653;52.188;8.602;2024-02-23T06:17:54;5.89;77.60
66740;DHT22;53653;52.188;8.602;2024-02-23T06:20:19;5.76;78.22
66740;DHT22;53653;52.188;8.602;2024-02-23T06:22:45;5.74;78.02
66740;DHT22;53653;52.188;8.602;2024-02-23T06:25:10;5.81;77.85
66740;DHT22;53653;52.188;8.602;2024-02-23T06:27:37;5.79;77.90
66740;DHT22;53653;52.188;8.602;2024-02-23T06:30:03;5.79;77.69
66740;DHT22;53653;52.188;8.602;2024-02-23T06:32:28;5.89;76.99
66740;DHT22;53653;52.188;8.602;2024-02-23T06:34:54;5.89;76.88
66740;DHT22;53653;52.188;8.602;2024-02-23T06:37:20;5.85;76.82
66740;DHT22;53653;52.188;8.602;2024-02-23T06:39:45;5.87;77.12
66740;DHT22;53653;52.188;8.602;2024-02-23T06:42:15;5.87;76.87
66740;DHT22;53653;52.188;8.602;2024-02-23T06:44:40;5.94;76.48
66740;DHT22;53653;52.188;8.602;2024-02-23T06:47:06;5.94;76.58
66740;DHT22;53653;52.188;8.602;2024-02-23T06:49:32;5.93;76.64
66740;DHT22;53653;52.188;8.602;2024-02-23T06:51:57;5.96;76.47
66740;DHT22;53653;52.188;8.602;2024-02-23T06:54:23;6.01;76.62
66740;DHT22;53653;52.188;8.602;2024-02-23T06:56:48;6.03;76.07
66740;DHT22;53653;52.188;8.602;2024-02-23T06:59:14;6.06;76.21
66740;DHT22;53653;52.188;8.602;2024-02-23T07:01:49;6.03;76.36
66740;DHT22;53653;52.188;8.602;2024-02-23T07:04:15;6.07;75.80
66740;DHT22;53653;52.188;8.602;2024-02-23T07:06:40;6.10;75.69
66740;DHT22;53653;52.188;8.602;2024-02-23T07:09:06;6.01;76.26
66740;DHT22;53653;52.188;8.602;2024-02-23T07:11:31;6.06;75.93
66740;DHT22;53653;52.188;8.602;2024-02-23T07:13:56;6.10;75.80
66740;DHT22;53653;52.188;8.602;2024-02-23T07:16:22;6.07;76.09
66740;DHT22;53653;52.188;8.602;2024-02-23T07:18:47;6.06;76.13
66740;DHT22;53653;52.188;8.602;2024-02-23T07:21:13;6.06;76.14
66740;DHT22;53653;52.188;8.602;2024-02-23T07:23:38;6.16;75.94
66740;DHT22;53653;52.188;8.602;2024-02-23T07:26:04;6.18;75.62
66740;DHT22;53653;52.188;8.602;2024-02-23T07:28:29;6.31;75.80
66740;DHT22;53653;52.188;8.602;2024-02-23T07:30:55;6.28;76.01
66740;DHT22;53653;52.188;8.602;2024-02-23T07:33:21;6.31;75.67
66740;DHT22;53653;52.188;8.602;2024-02-23T07:35:46;6.58;74.09
66740;DHT22;53653;52.188;8.602;2024-02-23T07:38:11;6.78;73.66
66740;DHT22;53653;52.188;8.602;2024-02-23T07:40:37;6.99;72.88
66740;DHT22;53653;52.188;8.602;2024-02-23T07:43:02;7.10;72.32
66740;DHT22;53653;52.188;8.602;2024-02-23T07:45:28;7.26;72.14
66740;DHT22;53653;52.188;8.602;2024-02-23T07:47:53;7.34;71.64
66740;DHT22;53653;52.188;8.602;2024-02-23T07:50:19;7.52;71.26
66740;DHT22;53653;52.188;8.602;2024-02-23T07:52:44;7.34;71.78
66740;DHT22;53653;52.188;8.602;2024-02-23T07:55:10;7.40;71.51
66740;DHT22;53653;52.188;8.602;2024-02-23T07:57:35;7.59;71.61
66740;DHT22;53653;52.188;8.602;2024-02-23T08:00:01;7.34;71.02
66740;DHT22;53653;52.188;8.602;2024-02-23T08:02:37;7.59;71.06
66740;DHT22;53653;52.188;8.602;2024-02-23T08:05:03;7.58;70.55
66740;DHT22;53653;52.188;8.602;2024-02-23T08:07:29;7.43;70.65
66740;DHT22;53653;52.188;8.602;2024-02-23T08:09:56;7.58;70.21
66740;DHT22;53653;52.188;8.602;2024-02-23T08:12:22;7.69;70.54
66740;DHT22;53653;52.188;8.602;2024-02-23T08:14:47;7.69;70.64
66740;DHT22;53653;52.188;8.602;2024-02-23T08:17:15;7.79;70.17
66740;DHT22;53653;52.188;8.602;2024-02-23T08:19:41;7.79;70.51
66740;DHT22;53653;52.188;8.602;2024-02-23T08:22:06;7.55;69.92
66740;DHT22;53653;52.188;8.602;2024-02-23T08:24:32;7.81;69.63
66740;DHT22;53653;52.188;8.602;2024-02-23T08:26:57;7.95;69.12
66740;DHT22;53653;52.188;8.602;2024-02-23T08:29:22;7.72;68.63
66740;DHT22;53653;52.188;8.602;2024-02-23T08:31:48;7.64;69.33
66740;DHT22;53653;52.188;8.602;2024-02-23T08:34:14;7.76;69.41
66740;DHT22;53653;52.188;8.602;2024-02-23T08:36:39;7.45;69.97
66740;DHT22;53653;52.188;8.602;2024-02-23T08:39:05;7.50;70.58
66740;DHT22;53653;52.188;8.602;2024-02-23T08:41:30;7.97;69.11
66740;DHT22;53653;52.188;8.602;2024-02-23T08:43:56;8.09;68.67
66740;DHT22;53653;52.188;8.602;2024-02-23T08:46:21;8.16;68.04
66740;DHT22;53653;52.188;8.602;2024-02-23T08:48:47;8.20;67.69
66740;DHT22;53653;52.188;8.602;2024-02-23T08:51:12;8.02;68.39
66740;DHT22;53653;52.188;8.602;2024-02-23T08:53:38;8.10;67.82
66740;DHT22;53653;52.188;8.602;2024-02-23T08:56:06;7.95;68.21
66740;DHT22;53653;52.188;8.602;2024-02-23T08:58:31;7.78;67.61
66740;DHT22;53653;52.188;8.602;2024-02-23T09:00:57;7.50;69.05
66740;DHT22;53653;52.188;8.602;2024-02-23T09:03:22;7.26;70.38
66740;DHT22;53653;52.188;8.602;2024-02-23T09:05:48;7.24;70.85
66740;DHT22;53653;52.188;8.602;2024-02-23T09:08:13;7.47;70.31
66740;DHT22;53653;52.188;8.602;2024-02-23T09:10:39;7.66;69.90
66740;DHT22;53653;52.188;8.602;2024-02-23T09:13:04;7.57;70.35
66740;DHT22;53653;52.188;8.602;2024-02-23T09:15:30;7.31;70.23
66740;DHT22;53653;52.188;8.602;2024-02-23T09:17:56;7.28;70.79
66740;DHT22;53653;52.188;8.602;2024-02-23T09:20:21;7.10;71.24
66740;DHT22;53653;52.188;8.602;2024-02-23T09:22:47;7.03;71.94
66740;DHT22;53653;52.188;8.602;2024-02-23T09:25:13;7.07;71.90
66740;DHT22;53653;52.188;8.602;2024-02-23T09:27:38;7.07;71.82
66740;DHT22;53653;52.188;8.602;2024-02-23T09:30:10;6.99;71.21
66740;DHT22;53653;52.188;8.602;2024-02-23T09:32:36;7.06;70.86
66740;DHT22;53653;52.188;8.602;2024-02-23T09:35:02;7.07;71.67
66740;DHT22;53653;52.188;8.602;2024-02-23T09:37:28;7.10;70.97
66740;DHT22;53653;52.188;8.602;2024-02-23T09:39:54;7.16;70.93
66740;DHT22;53653;52.188;8.602;2024-02-23T09:42:22;7.18;70.83
66740;DHT22;53653;52.188;8.602;2024-02-23T09:44:57;7.14;70.98
66740;DHT22;53653;52.188;8.602;2024-02-23T09:47:24;7.16;71.06
66740;DHT22;53653;52.188;8.602;2024-02-23T09:49:49;7.16;71.05
66740;DHT22;53653;52.188;8.602;2024-02-23T09:52:18;7.18;71.07
66740;DHT22;53653;52.188;8.602;2024-02-23T09:54:44;7.23;70.81
66740;DHT22;53653;52.188;8.602;2024-02-23T09:57:10;7.27;70.66
66740;DHT22;53653;52.188;8.602;2024-02-23T09:59:35;7.18;70.85
66740;DHT22;53653;52.188;8.602;2024-02-23T10:02:02;7.21;70.86
66740;DHT22;53653;52.188;8.602;2024-02-23T10:04:32;7.21;71.03
66740;DHT22;53653;52.188;8.602;2024-02-23T10:06:57;7.30;71.09
66740;DHT22;53653;52.188;8.602;2024-02-23T10:09:23;7.28;70.65
66740;DHT22;53653;52.188;8.602;2024-02-23T10:11:55;7.32;70.57
66740;DHT22;53653;52.188;8.602;2024-02-23T10:14:20;7.38;70.40
66740;DHT22;53653;52.188;8.602;2024-02-23T10:16:46;7.38;70.46
66740;DHT22;53653;52.188;8.602;2024-02-23T10:19:12;7.34;69.60
66740;DHT22;53653;52.188;8.602;2024-02-23T10:21:37;7.27;69.58
66740;DHT22;53653;52.188;8.602;2024-02-23T10:24:05;7.44;69.88
66740;DHT22;53653;52.188;8.602;2024-02-23T10:26:30;7.44;69.62
66740;DHT22;53653;52.188;8.602;2024-02-23T10:28:55;7.44;69.82
66740;DHT22;53653;52.188;8.602;2024-02-23T10:31:24;7.50;69.90
66740;DHT22;53653;52.188;8.602;2024-02-23T10:33:50;7.44;68.90
66740;DHT22;53653;52.188;8.602;2024-02-23T10:36:18;7.54;69.29
66740;DHT22;53653;52.188;8.602;2024-02-23T10:38:45;7.55;69.77
66740;DHT22;53653;52.188;8.602;2024-02-23T10:41:13;7.52;68.78
66740;DHT22;53653;52.188;8.602;2024-02-23T10:43:47;7.54;67.70
66740;DHT22;53653;52.188;8.602;2024-02-23T10:46:14;7.54;68.26
66740;DHT22;53653;52.188;8.602;2024-02-23T10:48:44;7.61;68.25
66740;DHT22;53653;52.188;8.602;2024-02-23T10:51:11;7.64;67.97
66740;DHT22;53653;52.188;8.602;2024-02-23T10:53:39;7.68;67.93
66740;DHT22;53653;52.188;8.602;2024-02-23T10:56:06;7.69;67.83
66740;DHT22;53653;52.188;8.602;2024-02-23T10:58:32;7.69;68.10
66740;DHT22;53653;52.188;8.602;2024-02-23T11:01:02;7.75;67.99
66740;DHT22;53653;52.188;8.602;2024-02-23T11:03:31;7.97;67.91
66740;DHT22;53653;52.188;8.602;2024-02-23T11:05:59;8.02;67.31
66740;DHT22;53653;52.188;8.602;2024-02-23T11:08:28;7.96;66.56
66740;DHT22;53653;52.188;8.602;2024-02-23T11:10:54;8.10;66.90
66740;DHT22;53653;52.188;8.602;2024-02-23T11:13:39;8.16;66.74
66740;DHT22;53653;52.188;8.602;2024-02-23T11:16:06;8.20;66.24
66740;DHT22;53653;52.188;8.602;2024-02-23T11:18:34;8.20;66.11
66740;DHT22;53653;52.188;8.602;2024-02-23T11:21:01;8.41;65.90
66740;DHT22;53653;52.188;8.602;2024-02-23T11:23:39;8.44;65.51
66740;DHT22;53653;52.188;8.602;2024-02-23T11:26:10;8.45;65.08
66740;DHT22;53653;52.188;8.602;2024-02-23T11:31:12;8.53;65.65
66740;DHT22;53653;52.188;8.602;2024-02-23T11:33:38;8.57;65.60
66740;DHT22;53653;52.188;8.602;2024-02-23T11:36:10;8.45;65.86
66740;DHT22;53653;52.188;8.602;2024-02-23T11:38:36;8.58;65.50
66740;DHT22;53653;52.188;8.602;2024-02-23T11:41:04;8.57;64.96
66740;DHT22;53653;52.188;8.602;2024-02-23T11:43:30;8.54;65.02
66740;DHT22;53653;52.188;8.602;2024-02-23T11:45:55;8.48;65.69
66740;DHT22;53653;52.188;8.602;2024-02-23T11:48:21;8.53;65.67
66740;DHT22;53653;52.188;8.602;2024-02-23T11:50:50;8.54;65.64
66740;DHT22;53653;52.188;8.602;2024-02-23T11:53:16;8.48;64.92
66740;DHT22;53653;52.188;8.602;2024-02-23T11:55:42;8.60;65.89
66740;DHT22;53653;52.188;8.602;2024-02-23T11:58:08;8.64;65.69
66740;DHT22;53653;52.188;8.602;2024-02-23T12:00:34;8.75;65.59
66740;DHT22;53653;52.188;8.602;2024-02-23T12:03:00;8.64;64.67
66740;DHT22;53653;52.188;8.602;2024-02-23T12:05:26;8.71;65.35
66740;DHT22;53653;52.188;8.602;2024-02-23T12:07:52;8.75;64.89
66740;DHT22;53653;52.188;8.602;2024-02-23T12:10:18;8.71;64.78
66740;DHT22;53653;52.188;8.602;2024-02-23T12:12:44;8.65;64.94
66740;DHT22;53653;52.188;8.602;2024-02-23T12:15:09;8.61;65.40
66740;DHT22;53653;52.188;8.602;2024-02-23T12:17:36;8.58;65.00
66740;DHT22;53653;52.188;8.602;2024-02-23T12:20:02;8.63;65.32
66740;DHT22;53653;52.188;8.602;2024-02-23T12:22:28;8.57;65.09
66740;DHT22;53653;52.188;8.602;2024-02-23T12:24:57;8.55;65.08
66740;DHT22;53653;52.188;8.602;2024-02-23T12:27:22;8.55;64.75
66740;DHT22;53653;52.188;8.602;2024-02-23T12:29:53;8.55;64.39
66740;DHT22;53653;52.188;8.602;2024-02-23T12:32:22;8.60;64.97
66740;DHT22;53653;52.188;8.602;2024-02-23T12:34:48;8.76;64.43
66740;DHT22;53653;52.188;8.602;2024-02-23T12:37:15;8.81;64.57
66740;DHT22;53653;52.188;8.602;2024-02-23T12:39:41;8.79;64.81
66740;DHT22;53653;52.188;8.602;2024-02-23T12:42:07;8.95;64.45
66740;DHT22;53653;52.188;8.602;2024-02-23T12:44:33;8.96;64.11
66740;DHT22;53653;52.188;8.602;2024-02-23T12:46:58;8.93;64.23
66740;DHT22;53653;52.188;8.602;2024-02-23T12:49:24;9.01;64.59
66740;DHT22;53653;52.188;8.602;2024-02-23T12:51:49;8.95;64.18
66740;DHT22;53653;52.188;8.602;2024-02-23T12:54:15;8.99;64.56
66740;DHT22;53653;52.188;8.602;2024-02-23T12:56:40;8.85;64.72
66740;DHT22;53653;52.188;8.602;2024-02-23T12:59:05;9.02;64.22
66740;DHT22;53653;52.188;8.602;2024-02-23T13:01:32;9.08;64.66
66740;DHT22;53653;52.188;8.602;2024-02-23T13:04:01;9.09;63.94
66740;DHT22;53653;52.188;8.602;2024-02-23T13:06:27;8.95;63.65
66740;DHT22;53653;52.188;8.602;2024-02-23T13:08:52;8.99;64.24
66740;DHT22;53653;52.188;8.602;2024-02-23T13:11:18;9.06;64.72
66740;DHT22;53653;52.188;8.602;2024-02-23T13:13:43;9.08;64.81
66740;DHT22;53653;52.188;8.602;2024-02-23T13:16:10;9.08;64.16
66740;DHT22;53653;52.188;8.602;2024-02-23T13:18:35;9.02;64.41
66740;DHT22;53653;52.188;8.602;2024-02-23T13:21:01;9.12;63.51
66740;DHT22;53653;52.188;8.602;2024-02-23T13:23:26;9.19;63.61
66740;DHT22;53653;52.188;8.602;2024-02-23T13:25:52;9.20;63.42
66740;DHT22;53653;52.188;8.602;2024-02-23T13:28:17;9.11;63.46
66740;DHT22;53653;52.188;8.602;2024-02-23T13:30:43;9.23;63.97
66740;DHT22;53653;52.188;8.602;2024-02-23T13:33:11;9.24;63.91
66740;DHT22;53653;52.188;8.602;2024-02-23T13:35:36;9.41;64.14
66740;DHT22;53653;52.188;8.602;2024-02-23T13:38:02;9.41;62.95
66740;DHT22;53653;52.188;8.602;2024-02-23T13:40:31;9.36;63.81
66740;DHT22;53653;52.188;8.602;2024-02-23T13:42:57;9.27;63.34
66740;DHT22;53653;52.188;8.602;2024-02-23T13:45:22;9.15;62.96
66740;DHT22;53653;52.188;8.602;2024-02-23T13:47:57;9.27;62.98
66740;DHT22;53653;52.188;8.602;2024-02-23T13:50:23;9.30;63.45
66740;DHT22;53653;52.188;8.602;2024-02-23T13:52:48;9.23;63.47
66740;DHT22;53653;52.188;8.602;2024-02-23T13:55:14;9.23;63.40
66740;DHT22;53653;52.188;8.602;2024-02-23T13:57:39;9.08;63.82
66740;DHT22;53653;52.188;8.602;2024-02-23T14:00:05;9.12;64.48
66740;DHT22;53653;52.188;8.602;2024-02-23T14:02:38;9.20;64.93
66740;DHT22;53653;52.188;8.602;2024-02-23T14:05:06;9.23;65.04
66740;DHT22;53653;52.188;8.602;2024-02-23T14:07:34;9.20;65.10
66740;DHT22;53653;52.188;8.602;2024-02-23T14:10:00;9.06;66.96
66740;DHT22;53653;52.188;8.602;2024-02-23T14:12:27;8.99;68.26
66740;DHT22;53653;52.188;8.602;2024-02-23T14:14:53;9.01;68.00
66740;DHT22;53653;52.188;8.602;2024-02-23T14:17:18;9.02;67.70
66740;DHT22;53653;52.188;8.602;2024-02-23T14:19:44;9.13;66.99
66740;DHT22;53653;52.188;8.602;2024-02-23T14:22:09;8.99;65.96
66740;DHT22;53653;52.188;8.602;2024-02-23T14:24:35;8.79;66.45
66740;DHT22;53653;52.188;8.602;2024-02-23T14:27:01;8.85;67.36
66740;DHT22;53653;52.188;8.602;2024-02-23T14:29:26;8.88;67.30
66740;DHT22;53653;52.188;8.602;2024-02-23T14:31:52;8.79;67.39
66740;DHT22;53653;52.188;8.602;2024-02-23T14:34:18;8.74;67.74
66740;DHT22;53653;52.188;8.602;2024-02-23T14:36:44;8.71;68.13
66740;DHT22;53653;52.188;8.602;2024-02-23T14:39:09;8.72;67.73
66740;DHT22;53653;52.188;8.602;2024-02-23T14:41:35;8.75;68.17
66740;DHT22;53653;52.188;8.602;2024-02-23T14:44:01;8.69;69.40
66740;DHT22;53653;52.188;8.602;2024-02-23T14:46:26;8.64;70.15
66740;DHT22;53653;52.188;8.602;2024-02-23T14:48:52;8.55;71.16
66740;DHT22;53653;52.188;8.602;2024-02-23T14:51:19;8.53;70.37
66740;DHT22;53653;52.188;8.602;2024-02-23T14:53:44;8.47;70.42
66740;DHT22;53653;52.188;8.602;2024-02-23T14:56:10;8.48;70.89
66740;DHT22;53653;52.188;8.602;2024-02-23T14:58:35;8.43;71.33
66740;DHT22;53653;52.188;8.602;2024-02-23T15:01:01;8.45;70.72
66740;DHT22;53653;52.188;8.602;2024-02-23T15:03:26;8.47;70.61
66740;DHT22;53653;52.188;8.602;2024-02-23T15:05:52;8.43;71.09
66740;DHT22;53653;52.188;8.602;2024-02-23T15:08:17;8.45;71.02
66740;DHT22;53653;52.188;8.602;2024-02-23T15:10:43;8.44;71.67
66740;DHT22;53653;52.188;8.602;2024-02-23T15:13:08;8.44;70.73
66740;DHT22;53653;52.188;8.602;2024-02-23T15:15:34;8.41;70.71
66740;DHT22;53653;52.188;8.602;2024-02-23T15:18:01;8.45;70.91
66740;DHT22;53653;52.188;8.602;2024-02-23T15:20:27;8.55;69.37
66740;DHT22;53653;52.188;8.602;2024-02-23T15:22:52;8.47;69.71
66740;DHT22;53653;52.188;8.602;2024-02-23T15:25:19;8.43;69.76
66740;DHT22;53653;52.188;8.602;2024-02-23T15:27:44;8.36;69.83
66740;DHT22;53653;52.188;8.602;2024-02-23T15:30:09;8.30;70.90
66740;DHT22;53653;52.188;8.602;2024-02-23T15:32:36;8.09;72.88
66740;DHT22;53653;52.188;8.602;2024-02-23T15:35:02;8.05;73.53
66740;DHT22;53653;52.188;8.602;2024-02-23T15:37:29;7.85;76.05
66740;DHT22;53653;52.188;8.602;2024-02-23T15:39:54;7.71;77.30